Terminal Aerodrome Forecast
Issued by NWS

Home | Current Version | Previous Version | Text Only | Print | Product List | Glossary On
Versions: 1 2 3 4 5 6 7 8 9 10 11 12 13 14 15 16 17 18 19 20 21 22 23 24 25 26
431
FTAK31 PANC 191732
TAFAGK
TAF
PAGK 191732Z 1918/2018 00000KT P6SM SCT025
      TEMPO 1918/1920 BKN025
     FM201000 00000KT P6SM BKN025=

USA.gov is the U.S. government's official web portal to all federal, state and local government web resources and services.